Time;durP1;ratioP1;P1;durP2;ratioP2;P2;SDS_P1;SDS_P2;PMS_P1;PMS_P2;Temp;Humidity;BMP_temperature;BMP_pressure;BME280_temperature;BME280_humidity;BME280_pressure;Samples;Min_cycle;Max_cycle;Signal;HPM_P1;HPM_P2
2021/07/18 00:00:21;;;;;;;10.88;9.65;;;;;;;29.90;45.09;99078.13;4485406;32;34419;-62
2021/07/18 00:02:49;;;;;;;14.15;9.85;;;;;;;29.90;45.16;99075.38;4485312;32;34259;-62
2021/07/18 00:05:16;;;;;;;14.98;11.05;;;;;;;29.88;45.19;99072.91;4485290;32;34587;-63
2021/07/18 00:07:44;;;;;;;11.25;9.82;;;;;;;29.89;45.25;99070.97;4485413;32;34029;-63
2021/07/18 00:10:12;;;;;;;13.25;10.63;;;;;;;29.88;45.29;99069.31;4485283;32;34010;-62
2021/07/18 00:12:40;;;;;;;12.60;9.82;;;;;;;29.89;45.40;99068.22;4485250;32;34008;-63
2021/07/18 00:15:09;;;;;;;17.55;10.85;;;;;;;29.88;45.44;99072.91;4485126;32;33838;-63
2021/07/18 00:17:39;;;;;;;13.60;10.67;;;;;;;29.87;45.52;99065.75;4485220;32;33911;-66
2021/07/18 00:20:10;;;;;;;13.30;11.05;;;;;;;29.89;45.54;99066.31;4485397;32;33610;-63
2021/07/18 00:22:37;;;;;;;14.32;11.02;;;;;;;29.87;45.62;99059.44;4485293;32;34801;-62
2021/07/18 00:25:05;;;;;;;15.07;10.73;;;;;;;29.87;45.62;99065.75;4485227;32;33970;-63
2021/07/18 00:27:33;;;;;;;16.27;10.27;;;;;;;29.87;45.70;99056.69;4485303;32;33561;-62
2021/07/18 00:30:04;;;;;;;14.25;10.88;;;;;;;29.87;45.72;99064.94;4485276;32;34673;-63
2021/07/18 00:32:31;;;;;;;13.48;10.65;;;;;;;29.87;45.71;99068.50;4483820;32;34027;-63
2021/07/18 00:35:05;;;;;;;13.60;10.57;;;;;;;29.87;45.66;99064.94;4485024;32;34308;-63
2021/07/18 00:37:32;;;;;;;16.40;11.27;;;;;;;29.86;45.72;99066.06;4485146;32;33723;-66
2021/07/18 00:40:00;;;;;;;14.95;11.00;;;;;;;29.86;45.82;99066.88;4484943;32;33921;-63
2021/07/18 00:42:27;;;;;;;13.13;10.60;;;;;;;29.86;45.75;99063.31;4485124;32;34807;-63
2021/07/18 00:44:56;;;;;;;13.63;11.27;;;;;;;29.86;45.73;99064.13;4484871;32;34332;-63
2021/07/18 00:47:23;;;;;;;14.20;10.88;;;;;;;29.86;45.77;99061.38;4483905;32;33615;-62
2021/07/18 00:49:51;;;;;;;14.50;11.00;;;;;;;29.84;45.81;99057.25;4483810;32;34080;-64
2021/07/18 00:52:19;;;;;;;13.07;10.82;;;;;;;29.84;45.76;99060.81;4485062;32;35023;-63
2021/07/18 00:54:46;;;;;;;16.87;10.98;;;;;;;29.83;45.62;99050.94;4485198;32;33523;-63
2021/07/18 00:57:14;;;;;;;16.92;11.88;;;;;;;29.84;45.46;99057.25;4484040;32;34352;-62
2021/07/18 00:59:42;;;;;;;15.35;10.38;;;;;;;29.84;45.41;99058.06;4484550;32;34259;-62
2021/07/18 01:02:10;;;;;;;12.68;10.68;;;;;;;29.83;45.38;99052.88;4483640;32;34161;-63
2021/07/18 01:04:37;;;;;;;14.10;10.73;;;;;;;29.83;45.43;99058.38;4483841;32;34068;-62
2021/07/18 01:07:05;;;;;;;13.57;11.00;;;;;;;29.84;45.52;99060.00;4484755;32;33608;-62
2021/07/18 01:09:34;;;;;;;15.35;10.55;;;;;;;29.84;45.58;99060.81;4483473;32;34667;-62
2021/07/18 01:12:02;;;;;;;13.82;11.27;;;;;;;29.84;45.55;99060.00;4485239;32;34217;-62
2021/07/18 01:14:30;;;;;;;14.20;10.60;;;;;;;29.83;45.38;99050.94;4484986;32;34060;-63
2021/07/18 01:16:59;;;;;;;15.27;11.07;;;;;;;29.84;45.38;99049.00;4483390;32;33605;-62
2021/07/18 01:19:28;;;;;;;15.93;11.10;;;;;;;29.83;45.48;99048.19;4484939;32;33886;-62
2021/07/18 01:22:00;;;;;;;16.12;11.38;;;;;;;29.84;45.43;99049.00;4485034;32;34896;-62
2021/07/18 01:24:28;;;;;;;15.70;11.38;;;;;;;29.83;45.46;99050.13;4484472;32;33872;-62
2021/07/18 01:26:56;;;;;;;15.13;10.90;;;;;;;29.84;45.49;99049.00;4484775;32;33442;-62
2021/07/18 01:29:24;;;;;;;13.43;11.00;;;;;;;29.82;45.52;99053.97;4484860;32;33990;-62
2021/07/18 01:31:51;;;;;;;15.27;10.73;;;;;;;29.82;45.50;99049.31;4484794;32;33624;-64
2021/07/18 01:34:19;;;;;;;16.70;11.30;;;;;;;29.82;45.53;99048.47;4484532;32;34362;-62
2021/07/18 01:36:46;;;;;;;15.82;11.10;;;;;;;29.80;45.46;99070.78;4484804;32;33710;-62
2021/07/18 01:39:14;;;;;;;14.40;10.95;;;;;;;29.78;45.46;99102.41;4484531;32;33785;-62
2021/07/18 01:41:41;;;;;;;14.15;11.20;;;;;;;29.80;45.42;99061.69;4484830;32;33606;-62
2021/07/18 01:44:09;;;;;;;18.05;11.00;;;;;;;29.79;45.35;99065.53;4484756;32;34277;-62
2021/07/18 01:46:36;;;;;;;13.90;11.95;;;;;;;29.76;45.33;99085.38;4484407;32;33877;-62
2021/07/18 01:49:06;;;;;;;13.98;11.50;;;;;;;29.76;45.33;99099.97;4484632;31;34126;-62
2021/07/18 01:51:33;;;;;;;12.18;10.73;;;;;;;29.75;45.38;99095.53;4484892;32;34180;-62
2021/07/18 01:54:02;;;;;;;13.30;11.25;;;;;;;29.78;45.35;99085.91;4484938;32;33564;-63
2021/07/18 01:56:29;;;;;;;16.33;10.80;;;;;;;29.77;45.40;99115.34;4484875;32;34239;-62
2021/07/18 01:58:57;;;;;;;13.70;10.70;;;;;;;29.78;45.40;99103.22;4484394;32;34091;-62
2021/07/18 02:01:26;;;;;;;15.13;10.73;;;;;;;29.77;45.42;99090.59;4484544;32;34795;-63
2021/07/18 02:03:55;;;;;;;16.58;11.27;;;;;;;29.77;45.48;99087.84;4484485;32;34808;-62
2021/07/18 02:06:24;;;;;;;16.92;11.52;;;;;;;29.78;45.38;99096.91;4484385;32;34186;-63
2021/07/18 02:08:56;;;;;;;16.27;11.38;;;;;;;29.77;45.49;99103.53;4484465;32;34664;-62
2021/07/18 02:11:23;;;;;;;17.12;10.63;;;;;;;29.78;45.41;99094.97;4484117;32;34331;-62
2021/07/18 02:13:53;;;;;;;15.73;11.05;;;;;;;29.77;45.39;99071.34;4484140;32;35435;-62
2021/07/18 02:16:21;;;;;;;16.08;11.52;;;;;;;29.73;45.50;99103.25;4484553;32;33682;-63
2021/07/18 02:18:48;;;;;;;15.02;11.73;;;;;;;29.74;45.45;99097.47;4484550;32;34656;-64
2021/07/18 02:21:18;;;;;;;15.85;11.75;;;;;;;29.73;45.44;99084.84;4483072;32;33989;-62
2021/07/18 02:23:46;;;;;;;15.43;11.00;;;;;;;29.76;45.50;99066.16;4484416;32;34191;-63
2021/07/18 02:26:15;;;;;;;16.35;12.00;;;;;;;29.77;45.46;99065.84;4484408;32;33739;-62
2021/07/18 02:28:42;;;;;;;13.10;11.48;;;;;;;29.71;45.54;99117.31;4484261;32;33319;-62
2021/07/18 02:31:10;;;;;;;13.73;10.82;;;;;;;29.75;45.59;99109.28;4484321;32;34107;-62
2021/07/18 02:33:37;;;;;;;16.20;12.05;;;;;;;29.73;45.54;99093.09;4484478;32;34028;-63
2021/07/18 02:36:05;;;;;;;17.77;11.82;;;;;;;29.74;45.51;99064.47;4484378;32;33265;-62
2021/07/18 02:38:32;;;;;;;13.30;11.90;;;;;;;29.73;45.52;99073.84;4483213;32;34670;-62
2021/07/18 02:41:00;;;;;;;12.93;11.25;;;;;;;29.70;45.53;99082.69;4484238;32;34031;-63
2021/07/18 02:43:27;;;;;;;19.37;11.93;;;;;;;29.72;45.54;99071.37;4484433;32;34725;-62
2021/07/18 02:45:56;;;;;;;19.45;12.23;;;;;;;29.73;45.45;99071.09;4481615;32;84768;-63
2021/07/18 02:48:23;;;;;;;17.05;12.00;;;;;;;29.73;45.40;99051.84;4483746;31;34120;-62
2021/07/18 02:50:51;;;;;;;15.18;12.63;;;;;;;29.72;45.47;99071.37;4484351;32;33577;-62
2021/07/18 02:53:18;;;;;;;14.82;12.55;;;;;;;29.72;45.56;99076.88;4484267;32;34305;-61
2021/07/18 02:55:46;;;;;;;14.87;11.27;;;;;;;29.72;45.68;99071.37;4484158;32;32987;-63
2021/07/18 02:58:13;;;;;;;15.43;11.48;;;;;;;29.73;45.75;99070.28;4484196;32;33486;-62
2021/07/18 03:00:41;;;;;;;16.10;12.63;;;;;;;29.74;45.49;99055.41;4484194;32;34111;-63
2021/07/18 03:03:08;;;;;;;17.37;12.60;;;;;;;29.71;45.37;99065.06;4484252;32;33712;-62
2021/07/18 03:05:37;;;;;;;16.05;11.50;;;;;;;29.69;45.53;99089.25;4483915;32;33831;-62
2021/07/18 03:08:05;;;;;;;17.70;12.20;;;;;;;29.70;45.47;99090.94;4483950;32;33966;-62
2021/07/18 03:10:32;;;;;;;17.87;12.18;;;;;;;29.71;45.62;99094.50;4483953;32;33973;-66
2021/07/18 03:13:00;;;;;;;15.25;11.52;;;;;;;29.71;45.72;99117.31;4483790;32;34795;-64
2021/07/18 03:15:27;;;;;;;19.30;12.57;;;;;;;29.71;45.84;99108.25;4484283;32;33676;-62
2021/07/18 03:17:54;;;;;;;15.05;12.80;;;;;;;29.71;45.63;99106.31;4483787;32;33843;-62
2021/07/18 03:20:22;;;;;;;15.35;12.80;;;;;;;29.72;45.77;99104.38;4483929;32;34749;-62
2021/07/18 03:22:50;;;;;;;16.05;12.55;;;;;;;29.71;45.71;99091.75;4482992;32;35343;-62
2021/07/18 03:25:17;;;;;;;14.05;11.82;;;;;;;29.70;45.59;99101.06;4483237;32;33236;-63
2021/07/18 03:27:45;;;;;;;17.12;12.48;;;;;;;29.70;45.66;99104.69;4483697;32;35112;-64
2021/07/18 03:30:14;;;;;;;15.18;12.02;;;;;;;29.70;45.74;99118.41;4483733;32;34039;-64
2021/07/18 03:32:41;;;;;;;17.08;12.35;;;;;;;29.70;45.72;99121.16;4483640;32;33956;-62
2021/07/18 03:35:09;;;;;;;22.00;12.50;;;;;;;29.72;45.68;99109.87;4483628;32;34703;-62
2021/07/18 03:37:37;;;;;;;16.25;12.82;;;;;;;29.71;45.71;99106.31;4483617;32;33635;-64
2021/07/18 03:40:06;;;;;;;15.60;12.73;;;;;;;29.70;45.85;99104.69;4483366;32;34009;-63
2021/07/18 03:42:33;;;;;;;17.05;12.27;;;;;;;29.70;45.96;99115.69;4483630;32;33922;-62
2021/07/18 03:45:01;;;;;;;13.73;12.23;;;;;;;29.71;45.78;99109.06;4483464;32;34330;-63
2021/07/18 03:47:28;;;;;;;15.35;12.85;;;;;;;29.70;45.85;99115.69;4483326;32;33908;-62
2021/07/18 03:50:01;;;;;;;14.52;11.63;;;;;;;29.71;45.86;99119.25;4483815;32;33549;-62
2021/07/18 03:52:28;;;;;;;15.70;12.25;;;;;;;29.71;45.81;99124.75;4483541;32;34073;-61
2021/07/18 03:54:56;;;;;;;14.68;12.23;;;;;;;29.71;45.74;99116.50;4483242;32;34239;-62
2021/07/18 03:57:23;;;;;;;16.92;12.00;;;;;;;29.71;45.75;99122.00;4483221;32;33890;-63
2021/07/18 03:59:51;;;;;;;18.65;12.25;;;;;;;29.70;45.71;99115.69;4483589;32;34276;-62
2021/07/18 04:02:19;;;;;;;15.45;12.15;;;;;;;29.71;45.67;99124.75;4482974;32;34436;-66
2021/07/18 04:04:47;;;;;;;17.05;11.85;;;;;;;29.69;45.59;99122.25;4483347;32;33903;-62
2021/07/18 04:07:14;;;;;;;18.75;13.02;;;;;;;29.69;45.57;99125.00;4483182;32;34591;-62
2021/07/18 04:09:41;;;;;;;17.48;12.60;;;;;;;29.68;45.56;99137.13;4483242;32;33286;-63
2021/07/18 04:12:09;;;;;;;15.23;12.13;;;;;;;29.69;45.66;99138.75;4483117;32;33843;-62
2021/07/18 04:14:37;;;;;;;13.43;11.98;;;;;;;29.69;45.68;99144.25;4483086;32;33585;-62
2021/07/18 04:17:04;;;;;;;14.15;12.65;;;;;;;29.68;45.66;99145.38;4481684;32;34677;-62
2021/07/18 04:19:32;;;;;;;17.73;13.48;;;;;;;29.68;45.64;99158.28;4483235;32;34094;-66
2021/07/18 04:21:59;;;;;;;14.20;12.50;;;;;;;29.67;45.65;99157.47;4483007;32;34595;-67
2021/07/18 04:24:27;;;;;;;20.08;13.85;;;;;;;29.67;45.59;99151.97;4482773;32;33291;-62
2021/07/18 04:26:55;;;;;;;17.55;13.52;;;;;;;29.68;45.61;99155.53;4482802;32;34658;-62
2021/07/18 04:29:22;;;;;;;16.75;13.70;;;;;;;29.66;45.61;99155.84;4482638;32;33996;-62
2021/07/18 04:31:50;;;;;;;15.50;13.88;;;;;;;29.66;45.59;99149.53;4482737;32;34168;-62
2021/07/18 04:34:18;;;;;;;17.02;13.75;;;;;;;29.67;45.59;99145.66;4483005;32;33827;-63
2021/07/18 04:36:46;;;;;;;17.75;14.50;;;;;;;29.67;45.50;99146.47;4485139;32;33877;-67
2021/07/18 04:39:13;;;;;;;19.95;15.23;;;;;;;29.67;45.64;99143.72;4485029;32;33910;-64
2021/07/18 04:41:41;;;;;;;20.40;14.98;;;;;;;29.67;45.75;99151.16;4485239;32;33970;-62
2021/07/18 04:44:08;;;;;;;17.45;14.73;;;;;;;29.68;45.68;99155.53;4485347;32;33942;-64
2021/07/18 04:46:36;;;;;;;19.12;15.13;;;;;;;29.68;45.69;99155.53;4484870;32;33642;-62
2021/07/18 04:49:03;;;;;;;17.87;15.02;;;;;;;29.68;45.76;99145.38;4485285;31;34826;-64
2021/07/18 04:51:31;;;;;;;17.62;14.73;;;;;;;29.68;45.80;99147.28;4485000;32;34189;-63
2021/07/18 04:53:59;;;;;;;19.23;14.52;;;;;;;29.68;45.85;99156.38;4485150;32;34465;-64
2021/07/18 04:56:27;;;;;;;17.50;14.05;;;;;;;29.67;45.79;99151.97;4484938;32;34129;-62
2021/07/18 04:58:54;;;;;;;20.90;14.55;;;;;;;29.69;45.81;99169.00;4485019;32;34772;-62
2021/07/18 05:01:27;;;;;;;18.02;14.52;;;;;;;29.68;45.89;99175.59;4485083;32;34106;-63
2021/07/18 05:03:54;;;;;;;22.33;15.48;;;;;;;29.67;45.91;99171.22;4485163;32;33511;-63
2021/07/18 05:06:22;;;;;;;19.90;14.98;;;;;;;29.67;45.87;99176.72;4485170;32;34727;-63
2021/07/18 05:08:49;;;;;;;19.10;17.15;;;;;;;29.68;45.91;99177.53;4484842;32;34199;-62
2021/07/18 05:11:19;;;;;;;17.35;15.38;;;;;;;29.67;45.97;99187.72;4485009;32;34017;-62
2021/07/18 05:13:48;;;;;;;21.35;16.77;;;;;;;29.67;45.96;99190.47;4484863;32;33468;-64
2021/07/18 05:16:15;;;;;;;17.48;15.55;;;;;;;29.68;45.97;99180.28;4484839;32;33982;-62
2021/07/18 05:18:43;;;;;;;17.58;15.38;;;;;;;29.69;45.93;99176.44;4485176;32;34843;-62
2021/07/18 05:21:11;;;;;;;17.45;15.10;;;;;;;29.68;46.00;99169.28;4484745;32;33924;-62
2021/07/18 05:23:38;;;;;;;20.35;14.63;;;;;;;29.67;46.00;99173.97;4484799;32;34338;-62
2021/07/18 05:26:06;;;;;;;20.60;15.63;;;;;;;29.67;45.98;99176.72;4484878;32;34159;-62
2021/07/18 05:28:33;;;;;;;21.00;15.57;;;;;;;29.67;45.99;99167.66;4484588;32;34069;-66
2021/07/18 05:31:00;;;;;;;18.85;15.10;;;;;;;29.67;46.09;99176.72;4484859;32;34069;-66
2021/07/18 05:33:28;;;;;;;19.42;16.12;;;;;;;29.68;45.99;99183.84;4484824;32;33937;-64
2021/07/18 05:35:55;;;;;;;16.83;14.87;;;;;;;29.67;45.95;99173.16;4484636;32;33509;-63
2021/07/18 05:38:23;;;;;;;19.00;15.90;;;;;;;29.67;46.00;99175.91;4484694;32;34153;-62
2021/07/18 05:40:59;;;;;;;19.60;16.05;;;;;;;29.68;46.00;99167.34;4484760;32;33825;-66
2021/07/18 05:43:26;;;;;;;21.48;16.45;;;;;;;29.67;46.06;99182.22;4484709;32;33392;-63
2021/07/18 05:45:54;;;;;;;18.05;15.65;;;;;;;29.68;46.11;99172.84;4484128;32;34992;-62
2021/07/18 05:48:25;;;;;;;18.83;15.82;;;;;;;29.68;46.11;99174.78;4484254;31;34211;-63
2021/07/18 05:50:52;;;;;;;18.65;16.65;;;;;;;29.68;46.16;99172.84;4484928;32;34565;-62
2021/07/18 05:53:20;;;;;;;19.40;16.45;;;;;;;29.68;46.11;99172.84;4484697;32;34365;-62
2021/07/18 05:55:48;;;;;;;20.95;16.77;;;;;;;29.69;46.09;99169.00;4484592;32;34744;-62
2021/07/18 05:58:15;;;;;;;18.90;16.90;;;;;;;29.68;46.14;99164.59;4484548;32;34530;-63
2021/07/18 06:00:42;;;;;;;19.55;17.30;;;;;;;29.68;46.28;99167.34;4484637;32;34729;-62
2021/07/18 06:03:11;;;;;;;18.12;15.95;;;;;;;29.68;46.29;99163.78;4484646;32;33138;-63
2021/07/18 06:05:39;;;;;;;19.42;17.10;;;;;;;29.68;46.23;99172.03;4484477;32;34004;-63
2021/07/18 06:08:07;;;;;;;20.20;16.20;;;;;;;29.69;46.25;99171.75;4484568;32;34866;-62
2021/07/18 06:10:34;;;;;;;18.33;16.42;;;;;;;29.68;46.19;99181.09;4484533;32;33837;-63
2021/07/18 06:13:03;;;;;;;19.02;17.02;;;;;;;29.69;46.11;99180.00;4484516;32;33569;-65
2021/07/18 06:15:30;;;;;;;23.87;15.90;;;;;;;29.70;46.16;99191.81;4484476;32;33882;-65
2021/07/18 06:17:58;;;;;;;21.87;15.63;;;;;;;29.69;46.14;99193.75;4484321;32;34073;-66
2021/07/18 06:20:30;;;;;;;19.17;16.23;;;;;;;29.70;46.17;99183.56;4484749;32;34558;-65
2021/07/18 06:22:58;;;;;;;24.45;16.50;;;;;;;29.70;46.27;99195.41;4484464;32;33172;-64
2021/07/18 06:25:25;;;;;;;18.67;16.27;;;;;;;29.70;46.21;99194.56;4484490;32;34570;-63
2021/07/18 06:27:53;;;;;;;20.62;16.52;;;;;;;29.70;46.20;99192.66;4484686;32;34916;-63
2021/07/18 06:30:20;;;;;;;18.58;16.35;;;;;;;29.70;46.10;99189.06;4484212;32;33693;-63
2021/07/18 06:32:48;;;;;;;21.17;16.58;;;;;;;29.71;46.24;99187.97;4484264;32;33810;-62
2021/07/18 06:35:15;;;;;;;19.37;16.95;;;;;;;29.71;46.23;99182.47;4484357;32;33911;-64
2021/07/18 06:37:43;;;;;;;18.60;16.42;;;;;;;29.70;46.15;99186.31;4484380;32;34967;-66
2021/07/18 06:40:11;;;;;;;18.42;16.50;;;;;;;29.71;46.28;99187.97;4484091;32;33880;-65
2021/07/18 06:42:38;;;;;;;17.70;15.75;;;;;;;29.71;46.22;99191.56;4484559;32;33569;-63
2021/07/18 06:45:10;;;;;;;18.55;16.35;;;;;;;29.71;46.27;99191.56;4484491;32;34134;-63
2021/07/18 06:47:37;;;;;;;17.45;15.65;;;;;;;29.72;46.45;99192.37;4482191;32;34029;-65
2021/07/18 06:50:05;;;;;;;21.35;16.70;;;;;;;29.72;46.63;99197.88;4483913;32;34232;-66
2021/07/18 06:52:33;;;;;;;21.75;17.40;;;;;;;29.71;46.57;99202.53;4484243;32;33529;-65
2021/07/18 06:55:00;;;;;;;18.55;15.65;;;;;;;29.73;46.62;99205.81;4483626;32;33665;-64
2021/07/18 06:57:28;;;;;;;18.77;15.57;;;;;;;29.74;46.60;99206.63;4484037;32;33787;-67
2021/07/18 06:59:55;;;;;;;19.17;15.98;;;;;;;29.76;46.52;99204.44;4481786;32;32546;-63
2021/07/18 07:02:23;;;;;;;23.67;15.68;;;;;;;29.78;46.62;99210.47;4483083;32;33399;-64
2021/07/18 07:04:51;;;;;;;26.00;16.75;;;;;;;29.77;46.65;99210.75;4484042;32;33876;-63
2021/07/18 07:07:18;;;;;;;26.25;16.95;;;;;;;29.78;46.37;99213.22;4484012;32;34333;-63
2021/07/18 07:09:46;;;;;;;18.67;16.42;;;;;;;29.78;46.59;99217.91;4483908;32;33928;-62
2021/07/18 07:12:13;;;;;;;17.35;15.43;;;;;;;29.77;46.55;99214.34;4484340;32;34173;-63
2021/07/18 07:14:41;;;;;;;19.73;16.33;;;;;;;29.78;46.54;99209.66;4484035;32;34209;-66
2021/07/18 07:17:08;;;;;;;19.02;15.57;;;;;;;29.78;46.47;99209.66;4483828;32;33240;-65
2021/07/18 07:19:36;;;;;;;18.83;16.37;;;;;;;29.77;46.44;99216.25;4483869;32;34223;-66
2021/07/18 07:22:03;;;;;;;18.83;16.40;;;;;;;29.78;46.42;99217.91;4484157;32;33957;-63
2021/07/18 07:24:32;;;;;;;17.63;15.50;;;;;;;29.79;46.36;99219.53;4483809;32;34041;-64
2021/07/18 07:26:59;;;;;;;17.10;15.30;;;;;;;29.79;46.31;99223.09;4483879;32;33968;-66
2021/07/18 07:29:27;;;;;;;18.67;15.05;;;;;;;29.79;46.32;99231.37;4483586;32;33275;-67
2021/07/18 07:31:54;;;;;;;21.52;15.82;;;;;;;29.79;46.30;99231.37;4483933;32;33497;-66
2021/07/18 07:34:22;;;;;;;18.17;14.90;;;;;;;29.79;46.25;99236.03;4483769;32;33880;-66
2021/07/18 07:36:50;;;;;;;20.95;15.68;;;;;;;29.80;46.20;99237.69;4483583;32;33996;-67
2021/07/18 07:39:17;;;;;;;21.77;15.80;;;;;;;29.79;46.18;99236.84;4483945;32;34838;-66
2021/07/18 07:41:45;;;;;;;18.10;14.98;;;;;;;29.80;46.15;99249.53;4483681;32;33161;-66
2021/07/18 07:44:12;;;;;;;17.98;14.32;;;;;;;29.79;46.16;99242.34;4483451;32;33657;-67
2021/07/18 07:46:40;;;;;;;19.83;15.38;;;;;;;29.81;46.10;99253.09;4483483;32;34904;-67
2021/07/18 07:49:07;;;;;;;16.62;14.27;;;;;;;29.79;46.13;99249.78;4483315;32;34622;-67
2021/07/18 07:51:35;;;;;;;18.10;14.45;;;;;;;29.79;46.19;99247.03;4483320;32;33488;-68
2021/07/18 07:54:03;;;;;;;20.55;15.20;;;;;;;29.78;46.19;99264.66;4483386;32;34016;-68
2021/07/18 07:56:31;;;;;;;18.17;14.87;;;;;;;29.78;46.16;99268.22;4483527;32;33977;-67
2021/07/18 07:58:59;;;;;;;16.83;14.70;;;;;;;29.78;46.06;99273.72;4483532;32;33931;-66
2021/07/18 08:01:27;;;;;;;15.60;13.55;;;;;;;29.77;46.10;99282.25;4483469;32;34362;-67
2021/07/18 08:03:55;;;;;;;17.00;13.65;;;;;;;29.78;46.09;99297.66;4483316;32;34069;-67
2021/07/18 08:06:22;;;;;;;22.05;14.18;;;;;;;29.77;46.08;99307.84;4483008;32;34039;-67
2021/07/18 08:08:50;;;;;;;14.95;13.32;;;;;;;29.76;46.08;99314.44;4483225;32;34287;-67
2021/07/18 08:11:17;;;;;;;17.55;13.88;;;;;;;29.76;46.04;99317.19;4485200;32;33442;-67
2021/07/18 08:13:45;;;;;;;15.98;14.32;;;;;;;29.75;46.06;99323.78;4483915;32;34219;-66
2021/07/18 08:16:13;;;;;;;16.75;14.32;;;;;;;29.75;46.04;99321.03;4485410;32;35053;-67
2021/07/18 08:18:40;;;;;;;16.08;14.18;;;;;;;29.74;46.04;99311.12;4485201;32;33994;-63
2021/07/18 08:21:08;;;;;;;18.70;13.43;;;;;;;29.75;46.01;99299.03;4483945;32;32975;-62
2021/07/18 08:23:35;;;;;;;15.93;14.27;;;;;;;29.74;46.04;99300.94;4485601;32;33900;-63
2021/07/18 08:26:03;;;;;;;17.12;14.68;;;;;;;29.75;45.96;99293.53;4485266;32;34076;-62
2021/07/18 08:28:31;;;;;;;16.17;14.48;;;;;;;29.74;45.90;99289.94;4484014;32;34561;-62
2021/07/18 08:30:58;;;;;;;16.48;13.10;;;;;;;29.74;45.92;99287.19;4485192;32;34309;-63
2021/07/18 08:33:26;;;;;;;15.75;14.07;;;;;;;29.72;46.01;99275.69;4485179;32;33597;-62
2021/07/18 08:35:53;;;;;;;18.67;13.82;;;;;;;29.74;46.02;99275.38;4485142;32;34005;-64
2021/07/18 08:38:22;;;;;;;17.90;13.93;;;;;;;29.73;45.99;99269.06;4485399;32;34005;-62
2021/07/18 08:40:50;;;;;;;16.47;14.47;;;;;;;29.73;45.96;99273.75;4485307;32;33546;-63
2021/07/18 08:43:30;;;;;;;;;;;;;;;29.73;45.94;99260.81;4484356;32;34048;-64
2021/07/18 08:45:58;;;;;;;15.75;13.70;;;;;;;29.85;45.64;99268.75;4485074;32;35162;-63
2021/07/18 08:48:25;;;;;;;18.40;14.55;;;;;;;29.76;45.74;99262.19;4485236;31;34595;-63
2021/07/18 08:50:53;;;;;;;14.82;13.32;;;;;;;29.72;45.88;99253.69;4485124;32;33527;-63
2021/07/18 08:53:25;;;;;;;15.93;13.75;;;;;;;29.73;45.85;99265.50;4483819;32;34317;-62
2021/07/18 08:55:53;;;;;;;17.33;14.25;;;;;;;29.72;45.83;99255.59;4471213;32;34194;-63
2021/07/18 08:58:21;;;;;;;14.63;13.13;;;;;;;29.71;45.88;99260.28;4485013;32;34725;-64
2021/07/18 09:00:48;;;;;;;18.67;13.85;;;;;;;29.71;45.97;99253.97;4484957;32;34018;-63
2021/07/18 09:03:16;;;;;;;16.98;14.50;;;;;;;29.70;45.97;99249.56;4484932;32;33605;-63
2021/07/18 09:05:44;;;;;;;16.95;13.62;;;;;;;29.70;45.97;99261.41;4485031;32;34070;-62
2021/07/18 09:08:22;;;;;;;16.62;13.65;;;;;;;29.70;45.92;99255.91;4485031;32;33843;-63
2021/07/18 09:10:50;;;;;;;15.07;13.60;;;;;;;29.72;45.76;99264.69;4485146;32;34477;-63
2021/07/18 09:13:18;;;;;;;16.25;14.07;;;;;;;29.71;45.80;99260.28;4484915;32;34697;-62
2021/07/18 09:15:53;;;;;;;15.60;13.62;;;;;;;29.71;45.84;99249.28;4484947;32;34170;-63
2021/07/18 09:18:23;;;;;;;17.00;13.90;;;;;;;29.70;45.87;99252.31;4484911;32;33625;-63
2021/07/18 09:20:51;;;;;;;14.75;13.25;;;;;;;29.70;45.87;99252.31;4484380;32;34316;-63
2021/07/18 09:23:28;;;;;;;15.93;13.13;;;;;;;29.71;45.83;99254.78;4484401;32;33992;-63
2021/07/18 09:26:16;;;;;;;14.10;12.65;;;;;;;29.71;45.78;99254.78;4484938;32;34915;-63
2021/07/18 09:28:43;;;;;;;15.40;13.02;;;;;;;29.74;45.74;99267.13;4484794;32;34772;-66
2021/07/18 09:31:33;;;;;;;15.70;13.68;;;;;;;29.71;45.82;99262.22;4485104;32;33781;-66
2021/07/18 09:34:21;;;;;;;15.10;13.20;;;;;;;29.72;45.78;99256.44;4484870;32;34840;-64
2021/07/18 09:36:48;;;;;;;15.93;14.32;;;;;;;29.71;45.88;99253.97;4484674;32;34118;-63
2021/07/18 09:39:16;;;;;;;15.05;13.20;;;;;;;29.69;45.95;99253.41;4484821;32;34585;-66
2021/07/18 09:41:44;;;;;;;16.05;12.70;;;;;;;29.68;45.99;99257.28;4484778;32;33414;-65
2021/07/18 09:44:11;;;;;;;13.75;12.35;;;;;;;29.69;45.99;99253.41;4483310;32;33902;-63
2021/07/18 09:46:39;;;;;;;14.98;13.40;;;;;;;29.68;46.05;99265.53;4484565;32;35415;-63
2021/07/18 09:49:11;;;;;;;16.37;13.80;;;;;;;29.68;45.97;99260.84;4484452;32;34349;-66
2021/07/18 09:51:39;;;;;;;17.02;13.93;;;;;;;29.69;45.89;99276.22;4470504;32;33637;-64
2021/07/18 09:54:13;;;;;;;16.90;13.52;;;;;;;29.71;45.94;99276.78;4484935;32;34101;-63
2021/07/18 09:56:40;;;;;;;16.65;14.02;;;;;;;29.70;45.97;99288.03;4484723;32;33645;-63
2021/07/18 09:59:08;;;;;;;16.40;13.65;;;;;;;29.72;45.88;99291.34;4484602;32;34350;-63
2021/07/18 10:01:35;;;;;;;14.70;13.20;;;;;;;29.71;45.85;99296.03;4484489;32;32843;-64
2021/07/18 10:04:03;;;;;;;15.88;13.07;;;;;;;29.71;45.84;99298.78;4484480;32;35053;-63
2021/07/18 10:06:35;;;;;;;15.90;13.23;;;;;;;29.71;45.87;99298.78;4484768;32;34147;-64
2021/07/18 10:09:05;;;;;;;16.65;13.40;;;;;;;29.71;45.98;99304.28;4484530;32;34540;-63
2021/07/18 10:11:33;;;;;;;14.75;13.15;;;;;;;29.71;45.92;99307.03;4484383;32;33183;-63
2021/07/18 10:14:00;;;;;;;14.32;12.77;;;;;;;29.72;45.72;99300.41;4484493;32;33693;-63
2021/07/18 10:16:29;;;;;;;15.30;12.93;;;;;;;29.72;45.81;99296.84;4484254;32;34305;-68
2021/07/18 10:18:57;;;;;;;16.27;13.40;;;;;;;29.71;45.95;99298.78;4482483;32;34172;-66
2021/07/18 10:21:26;;;;;;;14.63;13.02;;;;;;;29.71;45.84;99287.78;4484260;32;33721;-65
2021/07/18 10:23:54;;;;;;;18.58;13.43;;;;;;;29.71;45.68;99276.78;4484071;32;33981;-65
2021/07/18 10:26:33;;;;;;;14.70;13.10;;;;;;;29.71;45.58;99268.53;4484169;32;34163;-68
2021/07/18 10:29:00;;;;;;;15.13;13.10;;;;;;;29.71;45.55;99274.03;4481363;32;34602;-66
2021/07/18 10:31:37;;;;;;;16.23;13.43;;;;;;;29.72;45.94;99269.34;4480390;32;33653;-64
2021/07/18 10:34:06;;;;;;;15.07;12.75;;;;;;;29.70;45.96;99258.66;4475662;32;34774;-63
2021/07/18 10:36:34;;;;;;;15.00;12.23;;;;;;;29.71;46.19;99254.78;4480092;32;34810;-65
2021/07/18 10:39:35;;;;;;;14.10;12.00;;;;;;;29.72;45.83;99247.34;4479090;32;33601;-63
2021/07/18 10:42:07;;;;;;;15.18;13.05;;;;;;;29.73;45.73;99235.25;4482609;32;33378;-68
2021/07/18 10:44:46;;;;;;;13.15;11.77;;;;;;;29.71;45.95;99235.53;4484119;32;34082;-64
2021/07/18 10:47:15;;;;;;;13.15;11.75;;;;;;;29.72;45.78;99242.69;4484133;32;33970;-67
2021/07/18 10:49:58;;;;;;;16.45;13.55;;;;;;;29.71;45.71;99226.47;4484198;32;33931;-66
2021/07/18 10:52:32;;;;;;;14.48;12.90;;;;;;;29.73;45.92;99216.81;4482966;32;33564;-64
2021/07/18 10:55:01;;;;;;;13.93;12.45;;;;;;;29.69;46.04;99218.47;4479844;32;32690;-67
2021/07/18 10:57:32;;;;;;;15.80;12.60;;;;;;;29.70;45.97;99216.56;4481551;32;33958;-68
2021/07/18 11:00:31;;;;;;;14.13;12.63;;;;;;;29.69;45.88;99210.25;4481123;32;33968;-65
2021/07/18 11:03:05;;;;;;;15.20;12.82;;;;;;;29.73;45.74;99199.50;4476811;32;33149;-63
2021/07/18 11:05:39;;;;;;;14.48;12.95;;;;;;;29.72;46.05;99197.88;4484068;32;34112;-68
2021/07/18 11:08:07;;;;;;;15.95;12.63;;;;;;;29.71;46.26;99187.97;4483464;32;34199;-65
2021/07/18 11:10:54;;;;;;;15.38;12.60;;;;;;;29.69;46.39;99173.69;4482703;32;33881;-65
2021/07/18 11:13:22;;;;;;;14.65;12.55;;;;;;;29.71;46.04;99179.72;4468109;32;33114;-63
2021/07/18 11:15:49;;;;;;;13.68;12.25;;;;;;;29.69;46.15;99180.00;4466846;32;34064;-67
2021/07/18 11:18:38;;;;;;;13.75;12.35;;;;;;;29.68;46.37;99178.34;4483741;32;34893;-64
2021/07/18 11:21:30;;;;;;;14.32;12.27;;;;;;;29.68;46.29;99175.59;4483083;32;34054;-65
2021/07/18 11:23:58;;;;;;;14.40;12.57;;;;;;;29.69;46.13;99180.00;4483577;32;34236;-64